Time;durP1;ratioP1;P1;durP2;ratioP2;P2;SDS_P1;SDS_P2;PMS_P1;PMS_P2;Temp;Humidity;BMP_temperature;BMP_pressure;BME280_temperature;BME280_humidity;BME280_pressure;Samples;Min_cycle;Max_cycle;Signal;HPM_P1;HPM_P2
2023/02/09 00:01:16;;;;;;;5.67;2.80;;;-0.80;99.90;;;;;;5022800;28;20044;-69
2023/02/09 00:03:43;;;;;;;6.30;2.73;;;-0.80;99.90;;;;;;5049019;28;20036;-70
2023/02/09 00:06:13;;;;;;;7.43;3.40;;;-0.80;99.90;;;;;;5050741;28;20487;-69
2023/02/09 00:08:39;;;;;;;7.83;3.73;;;-0.80;99.90;;;;;;5032629;28;20033;-70
2023/02/09 00:11:07;;;;;;;5.83;2.60;;;-0.90;99.90;;;;;;5024974;28;20052;-69
2023/02/09 00:13:34;;;;;;;6.77;3.47;;;-0.80;99.90;;;;;;5032157;28;20391;-69
2023/02/09 00:16:02;;;;;;;7.60;2.40;;;-0.90;99.90;;;;;;5048840;28;20032;-70
2023/02/09 00:18:30;;;;;;;4.27;2.67;;;-0.90;99.90;;;;;;5066970;28;20368;-70
2023/02/09 00:21:00;;;;;;;4.67;2.57;;;-0.90;99.90;;;;;;5024226;28;20530;-71
2023/02/09 00:23:29;;;;;;;5.97;2.77;;;-0.90;99.90;;;;;;5032156;28;20502;-69
2023/02/09 00:25:58;;;;;;;5.00;2.23;;;-0.90;99.90;;;;;;5067352;28;20040;-71
2023/02/09 00:28:24;;;;;;;6.00;2.90;;;-0.90;99.90;;;;;;5034854;28;20043;-69
2023/02/09 00:30:51;;;;;;;7.30;3.30;;;-0.90;99.90;;;;;;5024249;28;20036;-69
2023/02/09 00:33:17;;;;;;;7.13;3.30;;;-0.90;99.90;;;;;;5049552;28;20036;-71
2023/02/09 00:35:44;;;;;;;9.00;3.77;;;-0.90;99.90;;;;;;5050051;28;20395;-70
2023/02/09 00:38:11;;;;;;;8.10;3.87;;;-0.90;99.90;;;;;;5034987;28;20040;-69
2023/02/09 00:40:38;;;;;;;6.17;3.60;;;-0.90;99.90;;;;;;5058892;28;20605;-71
2023/02/09 00:43:06;;;;;;;6.27;2.73;;;-1.00;99.90;;;;;;5067556;28;20507;-69
2023/02/09 00:45:34;;;;;;;5.90;2.33;;;-1.00;99.90;;;;;;5018133;28;20036;-69
2023/02/09 00:48:00;;;;;;;9.37;3.20;;;-1.00;99.90;;;;;;5066361;28;20032;-69
2023/02/09 00:50:28;;;;;;;6.97;2.80;;;-1.00;99.90;;;;;;5026506;28;20040;-70
2023/02/09 00:52:54;;;;;;;7.57;3.03;;;-1.00;99.90;;;;;;5048304;28;20047;-70
2023/02/09 00:55:21;;;;;;;5.30;2.00;;;-1.10;99.90;;;;;;5048983;28;20494;-69
2023/02/09 00:57:47;;;;;;;5.63;2.37;;;-1.10;99.90;;;;;;5067119;28;20032;-69
2023/02/09 01:00:15;;;;;;;4.60;2.20;;;-1.10;99.90;;;;;;5058508;28;20047;-71
2023/02/09 01:02:41;;;;;;;6.37;2.77;;;-1.10;99.90;;;;;;5031804;28;20143;-69
2023/02/09 01:05:08;;;;;;;5.27;2.57;;;-1.20;99.90;;;;;;5015786;28;20028;-71
2023/02/09 01:07:34;;;;;;;4.13;1.70;;;-1.20;99.90;;;;;;5069641;28;20040;-71
2023/02/09 01:10:01;;;;;;;5.50;2.20;;;-1.20;99.90;;;;;;5041898;28;20406;-70
2023/02/09 01:12:29;;;;;;;4.20;2.30;;;-1.20;99.90;;;;;;5048053;28;20411;-70
2023/02/09 01:14:56;;;;;;;4.73;2.57;;;-1.30;99.90;;;;;;5066068;28;20048;-69
2023/02/09 01:17:22;;;;;;;5.60;2.57;;;-1.30;99.90;;;;;;5031952;28;20372;-69
2023/02/09 01:19:53;;;;;;;6.53;2.07;;;-1.30;99.90;;;;;;5057891;28;20680;-69
2023/02/09 01:22:20;;;;;;;4.67;2.00;;;-1.30;99.90;;;;;;5065810;28;20044;-69
2023/02/09 01:24:48;;;;;;;4.57;1.87;;;-1.40;99.90;;;;;;5063415;28;20391;-70
2023/02/09 01:27:17;;;;;;;6.27;2.57;;;-1.40;99.90;;;;;;5015972;28;20055;-69
2023/02/09 01:29:44;;;;;;;3.80;1.70;;;-1.40;99.90;;;;;;5009619;28;20041;-70
2023/02/09 01:32:10;;;;;;;8.07;1.87;;;-1.40;99.90;;;;;;5065630;28;20603;-69
2023/02/09 01:34:37;;;;;;;3.83;2.13;;;-1.40;99.90;;;;;;5033581;28;20048;-69
2023/02/09 01:37:03;;;;;;;6.03;2.17;;;-1.40;99.90;;;;;;5049973;28;20055;-70
2023/02/09 01:39:30;;;;;;;5.67;2.53;;;-1.40;99.90;;;;;;5024701;28;20530;-69
2023/02/09 01:41:56;;;;;;;5.87;2.23;;;-1.50;99.90;;;;;;5031986;28;20044;-71
2023/02/09 01:44:22;;;;;;;5.07;2.43;;;-1.50;99.90;;;;;;5030331;28;20036;-70
2023/02/09 01:46:48;;;;;;;3.80;2.00;;;-1.50;99.90;;;;;;5032621;28;20503;-69
2023/02/09 01:49:19;;;;;;;4.63;1.83;;;-1.50;99.90;;;;;;5044115;28;20040;-71
2023/02/09 01:52:04;;;;;;;4.28;1.75;;;-1.50;99.90;;;;;;5043895;28;20036;-69
2023/02/09 01:54:37;;;;;;;2.93;1.40;;;-1.60;99.90;;;;;;5029019;28;20047;-69
2023/02/09 01:57:25;;;;;;;4.20;1.97;;;-1.60;99.90;;;;;;5029802;28;20479;-70
2023/02/09 01:59:58;;;;;;;3.07;1.60;;;-1.60;99.90;;;;;;5037095;28;20747;-69
2023/02/09 02:02:27;;;;;;;3.77;1.90;;;-1.70;99.90;;;;;;5045654;28;20056;-70
2023/02/09 02:04:53;;;;;;;3.60;1.87;;;-1.70;99.90;;;;;;5046601;28;20033;-70
2023/02/09 02:07:26;;;;;;;7.63;2.03;;;-1.70;99.90;;;;;;5047170;28;20036;-69
2023/02/09 02:09:53;;;;;;;4.43;2.00;;;-1.80;99.90;;;;;;5027778;28;20040;-71
2023/02/09 02:12:21;;;;;;;4.43;2.33;;;-1.80;99.90;;;;;;5030705;28;20048;-70
2023/02/09 02:14:47;;;;;;;3.73;2.00;;;-1.80;99.90;;;;;;5047717;28;20037;-69
2023/02/09 02:17:22;;;;;;;4.00;2.00;;;-1.80;99.90;;;;;;5048054;28;20040;-69
2023/02/09 02:20:26;;;;;;;3.07;1.30;;;-1.80;99.90;;;;;;5022996;28;20820;-68
2023/02/09 02:23:02;;;;;;;3.40;1.50;;;-1.80;99.90;;;;;;5047171;28;20058;-69
2023/02/09 02:25:55;;;;;;;4.10;1.57;;;-1.90;99.90;;;;;;5046917;28;20558;-68
2023/02/09 02:28:57;;;;;;;3.83;2.13;;;-1.90;99.90;;;;;;5018562;28;20028;-69
2023/02/09 02:32:02;;;;;;;4.72;2.20;;;-1.70;99.90;;;;;;5025555;28;20083;-69
2023/02/09 02:34:52;;;;;;;5.40;2.37;;;-1.50;99.90;;;;;;5046952;28;20051;-68
2023/02/09 02:37:50;;;;;;;3.83;2.10;;;-1.50;99.90;;;;;;5030675;28;20047;-69
2023/02/09 02:40:22;;;;;;;3.87;2.13;;;-1.60;99.90;;;;;;5023246;28;20040;-69
2023/02/09 02:43:01;;;;;;;5.03;2.22;;;-1.70;99.90;;;;;;5046096;28;20044;-69
2023/02/09 02:45:46;;;;;;;4.33;2.23;;;-1.80;99.90;;;;;;5065474;28;20036;-69
2023/02/09 02:48:31;;;;;;;3.63;2.07;;;-1.80;99.90;;;;;;5047354;28;20040;-69
2023/02/09 02:51:06;;;;;;;3.33;1.67;;;-1.90;99.90;;;;;;5038319;28;20550;-70
2023/02/09 02:53:35;;;;;;;2.40;1.47;;;-1.90;99.90;;;;;;5046650;28;20044;-69
2023/02/09 02:56:08;;;;;;;3.93;2.00;;;-2.00;99.90;;;;;;5064739;28;20032;-69
2023/02/09 02:58:37;;;;;;;2.80;2.00;;;-2.00;99.90;;;;;;5064629;28;20048;-70
2023/02/09 03:01:09;;;;;;;4.13;1.90;;;-2.10;99.90;;;;;;5056200;28;20048;-69
2023/02/09 03:03:36;;;;;;;3.27;1.60;;;-2.10;99.90;;;;;;5030035;28;20041;-68
2023/02/09 03:06:05;;;;;;;3.73;1.90;;;-2.10;99.90;;;;;;5067390;28;20037;-69
2023/02/09 03:08:50;;;;;;;3.60;1.77;;;-2.10;99.90;;;;;;5046650;28;20399;-69
2023/02/09 03:11:19;;;;;;;4.70;2.20;;;-2.10;99.90;;;;;;5038681;28;20900;-69
2023/02/09 03:14:05;;;;;;;5.17;2.50;;;-2.10;99.90;;;;;;5068277;28;20041;-70
2023/02/09 03:16:43;;;;;;;6.47;2.43;;;-2.10;99.90;;;;;;5034276;28;20048;-69
2023/02/09 03:19:15;;;;;;;4.80;1.93;;;-2.10;99.90;;;;;;5064721;28;20055;-70
2023/02/09 03:22:01;;;;;;;5.80;2.08;;;-2.10;99.90;;;;;;5045643;28;20032;-70
2023/02/09 03:24:52;;;;;;;2.83;1.33;;;-2.20;99.90;;;;;;5068560;28;20400;-68
2023/02/09 03:27:25;;;;;;;3.97;1.73;;;-2.10;99.90;;;;;;5070960;28;20032;-69
2023/02/09 03:29:56;;;;;;;3.57;1.60;;;-2.20;99.90;;;;;;5026019;28;20047;-70
2023/02/09 03:32:24;;;;;;;3.83;2.27;;;-2.20;99.90;;;;;;5069753;28;20510;-69
2023/02/09 03:34:51;;;;;;;5.90;3.10;;;-2.20;99.90;;;;;;5067882;28;20828;-68
2023/02/09 03:37:18;;;;;;;5.43;2.93;;;-2.20;99.90;;;;;;5050687;28;20036;-69
2023/02/09 03:39:44;;;;;;;6.47;3.00;;;-2.30;99.90;;;;;;5041746;28;20514;-68
2023/02/09 03:42:10;;;;;;;4.30;1.83;;;-2.30;99.90;;;;;;5050307;28;20041;-69
2023/02/09 03:44:36;;;;;;;4.27;2.27;;;-2.30;99.90;;;;;;5049778;28;20040;-69
2023/02/09 03:47:06;;;;;;;5.10;2.27;;;-2.30;99.90;;;;;;5018517;28;20048;-69
2023/02/09 03:49:38;;;;;;;3.70;1.90;;;-2.30;99.90;;;;;;5061497;28;20513;-69
2023/02/09 03:52:06;;;;;;;4.25;2.50;;;-2.30;99.90;;;;;;5066917;28;20033;-68
2023/02/09 03:54:32;;;;;;;4.43;2.13;;;-2.30;99.90;;;;;;5050095;28;20028;-69
2023/02/09 03:56:59;;;;;;;6.83;3.23;;;-2.30;99.90;;;;;;5070919;28;20467;-69
2023/02/09 03:59:27;;;;;;;5.13;2.13;;;-2.30;99.90;;;;;;5027810;28;20060;-69
2023/02/09 04:01:55;;;;;;;6.37;2.90;;;-2.30;99.90;;;;;;5046338;28;20045;-70
2023/02/09 04:04:21;;;;;;;5.03;2.23;;;-2.30;99.90;;;;;;5032898;28;20047;-69
2023/02/09 04:06:48;;;;;;;6.20;2.83;;;-2.20;99.90;;;;;;5067000;28;20039;-70
2023/02/09 04:09:15;;;;;;;6.50;2.77;;;-2.20;99.90;;;;;;5063109;28;20044;-68
2023/02/09 04:11:41;;;;;;;6.13;2.23;;;-2.20;99.90;;;;;;5044486;28;20206;-68
2023/02/09 04:14:08;;;;;;;5.37;3.03;;;-2.20;99.90;;;;;;5050149;28;20043;-68
2023/02/09 04:16:36;;;;;;;4.80;2.47;;;-2.20;99.90;;;;;;5051050;28;20048;-69
2023/02/09 04:19:03;;;;;;;5.17;2.20;;;-2.20;99.90;;;;;;5065044;28;20055;-69
2023/02/09 04:21:30;;;;;;;7.57;2.40;;;-2.20;99.90;;;;;;5061522;28;20125;-70
2023/02/09 04:23:57;;;;;;;5.00;2.47;;;-2.20;99.90;;;;;;5031353;28;20044;-68
2023/02/09 04:26:23;;;;;;;6.80;3.37;;;-2.20;99.90;;;;;;5066993;28;20434;-68
2023/02/09 04:28:49;;;;;;;5.77;3.57;;;-2.10;99.90;;;;;;5036612;28;20033;-68
2023/02/09 04:31:16;;;;;;;6.60;3.33;;;-2.10;99.90;;;;;;5061684;28;20634;-69
2023/02/09 04:33:42;;;;;;;7.40;2.90;;;-2.10;99.90;;;;;;5049127;28;20029;-68
2023/02/09 04:36:08;;;;;;;7.40;3.13;;;-2.00;99.90;;;;;;5051803;28;20077;-69
2023/02/09 04:38:35;;;;;;;8.70;3.67;;;-2.00;99.90;;;;;;5020030;28;20036;-71
2023/02/09 04:41:02;;;;;;;6.87;2.70;;;-1.90;99.90;;;;;;5040701;28;20039;-69
2023/02/09 04:43:29;;;;;;;6.70;3.07;;;-1.90;99.90;;;;;;5066614;28;20047;-69
2023/02/09 04:45:56;;;;;;;6.40;3.07;;;-1.80;99.90;;;;;;5066713;28;20529;-69
2023/02/09 04:48:24;;;;;;;7.50;4.10;;;-1.80;99.90;;;;;;5068205;28;20655;-69
2023/02/09 04:50:51;;;;;;;6.47;2.80;;;-1.80;99.90;;;;;;5022776;28;20043;-69
2023/02/09 04:53:17;;;;;;;8.70;3.47;;;-1.80;99.90;;;;;;5048497;28;20035;-69
2023/02/09 04:55:45;;;;;;;5.47;2.60;;;-1.80;99.90;;;;;;5048824;28;20044;-70
2023/02/09 05:01:00;;;;;;;5.13;2.43;;;-1.70;99.90;;;;;;5058542;28;20029;-69
2023/02/09 05:03:27;;;;;;;7.17;2.70;;;-1.80;99.90;;;;;;5047869;28;20028;-69
2023/02/09 05:05:59;;;;;;;6.53;2.90;;;-1.80;99.90;;;;;;5067145;28;20034;-69
2023/02/09 05:08:25;;;;;;;5.28;3.30;;;-1.70;99.90;;;;;;5048305;28;20036;-69
2023/02/09 05:10:53;;;;;;;8.00;4.10;;;-1.70;99.90;;;;;;5039460;28;20032;-69
2023/02/09 05:13:21;;;;;;;7.50;3.60;;;-1.70;99.90;;;;;;5050620;28;20041;-69
2023/02/09 05:15:47;;;;;;;6.07;3.33;;;-1.70;99.90;;;;;;5051917;28;20260;-69
2023/02/09 05:18:14;;;;;;;8.53;3.87;;;-1.60;99.90;;;;;;5069161;28;20043;-69
2023/02/09 05:20:42;;;;;;;6.67;3.23;;;-1.60;99.90;;;;;;5042252;28;20033;-69
2023/02/09 05:23:09;;;;;;;6.90;3.73;;;-1.60;99.90;;;;;;5066630;28;20040;-69
2023/02/09 05:25:35;;;;;;;9.10;4.10;;;-1.60;99.90;;;;;;5032850;28;20059;-69
2023/02/09 05:28:02;;;;;;;8.20;3.80;;;-1.60;99.90;;;;;;5066530;28;20382;-68
2023/02/09 05:30:30;;;;;;;4.53;2.73;;;-1.50;99.90;;;;;;5059781;28;20032;-69
2023/02/09 05:32:57;;;;;;;8.43;3.37;;;-1.50;99.90;;;;;;5050675;28;20388;-69
2023/02/09 05:35:23;;;;;;;8.10;3.57;;;-1.60;99.90;;;;;;5047361;28;20044;-69
2023/02/09 05:37:49;;;;;;;8.83;3.93;;;-1.50;99.90;;;;;;5047806;28;20032;-69
2023/02/09 05:40:16;;;;;;;8.20;3.93;;;-1.60;99.90;;;;;;5022163;28;20036;-69
2023/02/09 05:42:43;;;;;;;6.23;3.50;;;-1.50;99.90;;;;;;5052454;28;20047;-69
2023/02/09 05:45:09;;;;;;;8.40;3.20;;;-1.50;99.90;;;;;;5065625;28;20616;-70
2023/02/09 05:47:35;;;;;;;5.17;2.90;;;-1.60;99.90;;;;;;5037257;28;20032;-69
2023/02/09 05:50:02;;;;;;;13.17;4.43;;;-1.50;99.90;;;;;;5038108;28;20033;-69
2023/02/09 05:52:29;;;;;;;11.97;4.30;;;-1.60;99.90;;;;;;5033626;28;20033;-69
2023/02/09 05:54:55;;;;;;;9.63;3.93;;;-1.60;99.90;;;;;;5019246;28;20040;-69
2023/02/09 05:57:21;;;;;;;8.17;3.63;;;-1.60;99.90;;;;;;5048577;28;20037;-69
2023/02/09 05:59:47;;;;;;;9.17;3.57;;;-1.50;99.90;;;;;;5022050;28;20067;-71
2023/02/09 06:02:14;;;;;;;5.40;2.57;;;-1.50;99.90;;;;;;5065103;28;20043;-69
2023/02/09 06:04:40;;;;;;;6.17;3.30;;;-1.50;99.90;;;;;;5065509;28;20033;-70
2023/02/09 06:07:06;;;;;;;6.70;3.07;;;-1.50;99.90;;;;;;5065159;28;20037;-69
2023/02/09 06:09:32;;;;;;;5.77;2.77;;;-1.50;99.90;;;;;;5058300;28;20550;-71
2023/02/09 06:11:59;;;;;;;6.83;3.83;;;-1.50;99.90;;;;;;5045383;28;20438;-70
2023/02/09 06:14:25;;;;;;;5.50;3.03;;;-1.60;99.90;;;;;;5033934;28;20036;-69
2023/02/09 06:16:51;;;;;;;6.43;3.23;;;-1.60;99.90;;;;;;5042948;28;20300;-69
2023/02/09 06:19:19;;;;;;;7.53;3.07;;;-1.60;99.90;;;;;;5027988;28;20032;-71
2023/02/09 06:21:46;;;;;;;8.03;3.30;;;-1.60;99.90;;;;;;5041502;28;20040;-70
2023/02/09 06:24:13;;;;;;;10.13;4.13;;;-1.60;99.90;;;;;;5048974;28;20040;-69
2023/02/09 06:26:40;;;;;;;6.20;3.33;;;-1.60;99.90;;;;;;5047084;28;20057;-71
2023/02/09 06:29:08;;;;;;;6.97;3.33;;;-1.60;99.90;;;;;;5027972;28;20032;-69
2023/02/09 06:31:34;;;;;;;8.33;3.97;;;-1.60;99.90;;;;;;5037741;28;20040;-69
2023/02/09 06:34:01;;;;;;;7.63;3.73;;;-1.60;99.90;;;;;;5058684;28;20059;-69
2023/02/09 06:36:27;;;;;;;7.17;3.53;;;-1.60;99.90;;;;;;5059591;28;20292;-71
2023/02/09 06:38:53;;;;;;;7.47;3.43;;;-1.70;99.90;;;;;;5040858;28;20056;-70
2023/02/09 06:41:20;;;;;;;5.87;3.07;;;-1.60;99.90;;;;;;5057135;28;20611;-72
2023/02/09 06:43:46;;;;;;;6.30;3.80;;;-1.60;99.90;;;;;;5064270;28;20047;-72
2023/02/09 06:46:12;;;;;;;6.03;3.27;;;-1.60;99.90;;;;;;5063746;28;20039;-72
2023/02/09 06:48:39;;;;;;;6.63;3.77;;;-1.60;99.90;;;;;;5045338;28;20036;-71
2023/02/09 06:51:13;;;;;;;6.07;3.37;;;-1.60;99.90;;;;;;5004116;28;20041;-71
2023/02/09 06:53:41;;;;;;;6.00;3.60;;;-1.60;99.90;;;;;;5058412;28;20033;-71
2023/02/09 06:56:08;;;;;;;6.90;3.70;;;-1.60;99.90;;;;;;5047418;28;20044;-70
2023/02/09 06:58:36;;;;;;;10.97;4.47;;;-1.60;99.90;;;;;;5048053;28;20033;-69
2023/02/09 07:01:11;;;;;;;9.27;4.50;;;-1.60;99.90;;;;;;5038179;28;20036;-69
2023/02/09 07:03:37;;;;;;;5.10;3.10;;;-1.60;99.90;;;;;;5030634;28;20422;-69
2023/02/09 07:06:18;;;;;;;7.53;4.13;;;-1.60;99.90;;;;;;5049769;28;20530;-70
2023/02/09 07:08:45;;;;;;;8.23;4.43;;;-1.60;99.90;;;;;;5046066;28;20044;-69
2023/02/09 07:11:14;;;;;;;7.27;4.03;;;-1.70;99.90;;;;;;5056786;28;20028;-70
2023/02/09 07:13:41;;;;;;;6.03;3.20;;;-1.60;99.90;;;;;;5044035;28;20039;-70
2023/02/09 07:16:09;;;;;;;6.70;3.80;;;-1.60;99.90;;;;;;5045446;28;20135;-72
2023/02/09 07:18:36;;;;;;;9.60;4.50;;;-1.60;99.90;;;;;;5044249;28;20028;-70
2023/02/09 07:21:06;;;;;;;8.50;4.37;;;-1.50;99.90;;;;;;5019977;28;20683;-70
2023/02/09 07:23:32;;;;;;;8.83;4.63;;;-1.50;99.90;;;;;;5061560;28;20035;-71
2023/02/09 07:26:09;;;;;;;9.67;5.20;;;-1.50;99.90;;;;;;5044408;28;20435;-70
2023/02/09 07:28:36;;;;;;;7.70;3.63;;;-1.40;99.90;;;;;;5043045;28;20033;-71
2023/02/09 07:31:05;;;;;;;8.67;4.73;;;-1.40;99.90;;;;;;5036918;28;20067;-69
2023/02/09 07:33:31;;;;;;;9.20;5.03;;;-1.30;99.90;;;;;;5064385;28;20032;-70
2023/02/09 07:35:58;;;;;;;9.03;4.93;;;-1.30;99.90;;;;;;5028161;28;20033;-71
2023/02/09 07:38:24;;;;;;;8.90;5.30;;;-1.20;99.90;;;;;;5026933;28;20041;-69
2023/02/09 07:40:50;;;;;;;10.03;5.77;;;-1.20;99.90;;;;;;5056350;28;20044;-70
2023/02/09 07:43:17;;;;;;;7.33;4.20;;;-1.10;99.90;;;;;;5063971;28;20037;-70
2023/02/09 07:45:43;;;;;;;8.67;5.30;;;-1.10;99.90;;;;;;5018095;28;20241;-71
2023/02/09 07:48:10;;;;;;;8.80;4.37;;;-1.10;99.90;;;;;;5046996;28;20462;-70
2023/02/09 07:50:37;;;;;;;9.37;5.03;;;-1.00;99.90;;;;;;5037647;28;20044;-69
2023/02/09 07:53:03;;;;;;;7.53;4.67;;;-0.90;99.90;;;;;;5030909;28;20044;-70
2023/02/09 07:55:29;;;;;;;9.17;4.87;;;-0.90;99.90;;;;;;5064459;28;20039;-70
2023/02/09 07:57:56;;;;;;;7.77;4.60;;;-0.90;99.90;;;;;;5065810;28;20490;-71
2023/02/09 08:00:24;;;;;;;9.57;4.57;;;-0.80;99.90;;;;;;5023763;28;20115;-70
2023/02/09 08:02:50;;;;;;;11.30;4.97;;;-0.80;99.90;;;;;;5048615;28;20060;-70
2023/02/09 08:05:23;;;;;;;8.67;4.97;;;-0.70;99.90;;;;;;5016472;28;20036;-71
2023/02/09 08:07:49;;;;;;;8.77;5.17;;;-0.60;99.90;;;;;;5067484;28;20039;-70
2023/02/09 08:10:17;;;;;;;10.13;5.50;;;-0.60;99.90;;;;;;5039990;28;20032;-70
2023/02/09 08:12:59;;;;;;;12.77;6.57;;;-0.50;99.90;;;;;;5066998;28;20040;-72
2023/02/09 08:15:48;;;;;;;8.03;4.27;;;-0.40;99.90;;;;;;5033556;28;20527;-70
2023/02/09 08:18:21;;;;;;;8.80;4.80;;;-0.40;99.90;;;;;;5048154;28;20484;-70
2023/02/09 08:20:49;;;;;;;9.47;5.63;;;-0.20;99.90;;;;;;5061892;28;20502;-70
2023/02/09 08:23:20;;;;;;;11.47;6.30;;;-0.20;99.90;;;;;;5048093;28;20036;-70
2023/02/09 08:25:50;;;;;;;8.47;5.00;;;-0.10;99.90;;;;;;5069594;28;20087;-71
2023/02/09 08:28:18;;;;;;;12.90;7.33;;;0.00;99.90;;;;;;5035142;28;20043;-71
2023/02/09 08:30:46;;;;;;;9.10;5.70;;;0.00;99.90;;;;;;5060959;28;20040;-70
2023/02/09 08:33:17;;;;;;;12.57;6.90;;;0.10;99.90;;;;;;5034066;28;20028;-70
2023/02/09 08:35:43;;;;;;;8.53;4.50;;;0.20;99.90;;;;;;5052281;28;20373;-70
2023/02/09 08:38:10;;;;;;;10.60;5.47;;;0.30;99.90;;;;;;5050417;28;20304;-70
2023/02/09 08:40:40;;;;;;;9.30;5.53;;;0.30;99.90;;;;;;5050452;28;20021;-70
2023/02/09 08:43:07;;;;;;;12.47;6.50;;;0.40;99.90;;;;;;5061900;28;20048;-71
2023/02/09 08:45:38;;;;;;;11.13;6.03;;;0.50;99.90;;;;;;5063068;28;20382;-69
2023/02/09 08:48:05;;;;;;;10.43;4.60;;;0.60;99.90;;;;;;5069145;28;20043;-70
2023/02/09 08:50:32;;;;;;;9.73;5.33;;;0.60;99.90;;;;;;5057443;28;20036;-71
2023/02/09 08:53:01;;;;;;;7.17;4.63;;;0.70;99.90;;;;;;5065760;28;20039;-70
2023/02/09 08:55:29;;;;;;;11.10;5.73;;;0.80;99.90;;;;;;5016921;28;20040;-71
2023/02/09 08:57:55;;;;;;;11.83;5.57;;;0.90;99.90;;;;;;5047750;28;20032;-70
2023/02/09 09:00:21;;;;;;;13.90;7.60;;;1.00;99.90;;;;;;5022735;28;20044;-73
2023/02/09 09:02:48;;;;;;;9.77;4.67;;;1.10;99.90;;;;;;5065104;28;20484;-72
2023/02/09 09:05:14;;;;;;;10.43;5.83;;;1.10;99.90;;;;;;5030538;28;20487;-71
2023/02/09 09:07:40;;;;;;;10.47;6.37;;;1.20;99.90;;;;;;5050624;28;20555;-71
2023/02/09 09:10:10;;;;;;;10.83;6.03;;;1.30;99.90;;;;;;5059294;28;20040;-72
2023/02/09 09:12:36;;;;;;;10.30;6.13;;;1.40;99.90;;;;;;5065664;28;20032;-70
2023/02/09 09:15:04;;;;;;;11.67;6.23;;;1.50;99.90;;;;;;5064295;28;20041;-73
2023/02/09 09:17:31;;;;;;;12.23;6.17;;;1.60;99.90;;;;;;5066099;28;20035;-73
2023/02/09 09:19:57;;;;;;;11.50;6.60;;;1.70;99.90;;;;;;5021639;28;20461;-72
2023/02/09 09:22:24;;;;;;;10.00;5.77;;;1.70;99.90;;;;;;5046115;28;20454;-72
2023/02/09 09:24:53;;;;;;;9.40;5.27;;;1.80;99.90;;;;;;5063827;28;20045;-71
2023/02/09 09:27:20;;;;;;;9.97;5.33;;;1.80;99.90;;;;;;5047108;28;20044;-75
2023/02/09 09:29:46;;;;;;;12.13;5.87;;;1.90;99.90;;;;;;5057544;28;20040;-74
2023/02/09 09:32:13;;;;;;;11.87;6.00;;;1.90;99.90;;;;;;5064004;28;20029;-70
2023/02/09 09:34:40;;;;;;;9.97;6.07;;;1.90;99.90;;;;;;5063518;28;20036;-75
2023/02/09 09:37:06;;;;;;;15.60;6.83;;;2.00;99.90;;;;;;5066031;28;20031;-72
2023/02/09 09:39:33;;;;;;;9.77;5.53;;;2.10;99.90;;;;;;5057427;28;20331;-74
2023/02/09 09:41:59;;;;;;;13.80;6.57;;;2.20;99.90;;;;;;5029215;28;20463;-71
2023/02/09 09:44:42;;;;;;;10.67;6.00;;;2.30;99.90;;;;;;5044908;28;20036;-73
2023/02/09 09:47:17;;;;;;;9.82;5.97;;;2.40;99.90;;;;;;5045833;28;20566;-71
2023/02/09 09:49:43;;;;;;;12.97;7.20;;;2.40;99.90;;;;;;5012289;28;20032;-75
2023/02/09 09:52:23;;;;;;;13.23;7.00;;;2.50;99.90;;;;;;5028769;28;20048;-70
2023/02/09 09:54:50;;;;;;;11.13;6.57;;;2.50;99.90;;;;;;5064148;28;20487;-70
2023/02/09 09:57:41;;;;;;;9.97;6.27;;;2.50;99.90;;;;;;5065379;28;20483;-72
2023/02/09 10:00:36;;;;;;;9.40;5.97;;;2.60;99.90;;;;;;5038552;28;20616;-75
2023/02/09 10:03:11;;;;;;;12.60;7.17;;;2.60;99.90;;;;;;5050721;28;20044;-70
2023/02/09 10:05:38;;;;;;;10.77;5.70;;;2.70;99.90;;;;;;5047966;28;20036;-71
2023/02/09 10:08:10;;;;;;;9.87;5.67;;;2.70;99.90;;;;;;5064075;28;20052;-70
2023/02/09 10:10:49;;;;;;;12.40;7.10;;;2.80;99.90;;;;;;5037534;28;20480;-72
2023/02/09 10:13:23;;;;;;;10.73;6.20;;;2.80;99.90;;;;;;5063781;28;20095;-72
2023/02/09 10:15:52;;;;;;;11.43;6.77;;;2.90;99.90;;;;;;5031488;28;20609;-72
2023/02/09 10:18:24;;;;;;;11.53;6.80;;;3.10;99.90;;;;;;5056785;28;20051;-73
2023/02/09 10:20:54;;;;;;;11.00;6.30;;;3.10;99.90;;;;;;5037698;28;20055;-71
2023/02/09 10:23:26;;;;;;;12.80;6.80;;;3.30;99.90;;;;;;5064517;28;20446;-73
2023/02/09 10:25:59;;;;;;;12.52;6.63;;;3.50;99.90;;;;;;5044228;28;20048;-74
2023/02/09 10:28:29;;;;;;;9.37;5.20;;;3.70;99.90;;;;;;5044525;28;20087;-71
2023/02/09 10:30:58;;;;;;;12.27;6.97;;;4.00;99.90;;;;;;5035391;28;20395;-72
2023/02/09 10:33:25;;;;;;;11.87;7.50;;;4.30;99.90;;;;;;5026026;28;20044;-72
2023/02/09 10:36:04;;;;;;;11.75;7.13;;;4.60;99.90;;;;;;5026988;28;20416;-73
2023/02/09 10:38:31;;;;;;;12.75;6.45;;;4.90;99.90;;;;;;5025175;28;20033;-74
2023/02/09 10:40:59;;;;;;;15.23;7.10;;;5.10;99.90;;;;;;5018510;28;20100;-71
2023/02/09 10:43:32;;;;;;;9.23;5.45;;;5.40;99.90;;;;;;5042898;28;20484;-71
2023/02/09 10:46:10;;;;;;;12.65;6.78;;;5.60;99.90;;;;;;5025736;28;20029;-74
2023/02/09 10:48:42;;;;;;;11.45;6.70;;;5.80;99.90;;;;;;5026960;28;20045;-74
2023/02/09 10:51:28;;;;;;;11.48;6.95;;;6.20;99.90;;;;;;5034937;28;20036;-73
2023/02/09 10:54:06;;;;;;;11.30;6.72;;;6.50;99.90;;;;;;5044379;28;20359;-73
2023/02/09 10:56:43;;;;;;;10.77;7.68;;;6.80;99.90;;;;;;5026661;28;20467;-71
2023/02/09 10:59:21;;;;;;;10.48;7.13;;;6.90;99.90;;;;;;5037949;28;20265;-73
2023/02/09 11:01:59;;;;;;;10.50;6.50;;;7.00;99.90;;;;;;5037865;28;20049;-73
2023/02/09 11:04:35;;;;;;;13.73;8.68;;;7.00;99.90;;;;;;5058613;28;20476;-73
2023/02/09 11:07:08;;;;;;;11.48;7.22;;;7.10;99.90;;;;;;5027925;28;20033;-72
2023/02/09 11:09:48;;;;;;;10.65;7.53;;;7.10;99.90;;;;;;5037536;28;20033;-77
2023/02/09 11:12:14;;;;;;;9.77;6.32;;;7.20;99.90;;;;;;5043367;28;20045;-72
2023/02/09 11:14:41;;;;;;;9.82;7.13;;;7.20;99.90;;;;;;5012722;28;20484;-72
2023/02/09 11:17:13;;;;;;;15.23;8.27;;;7.10;99.90;;;;;;5042942;28;20036;-75
2023/02/09 11:19:57;;;;;;;14.68;9.40;;;6.90;99.90;;;;;;5038061;28;20040;-73
2023/02/09 11:23:20;;;;;;;11.57;7.43;;;6.80;99.90;;;;;;5024178;28;20056;-72
2023/02/09 11:25:59;;;;;;;12.75;8.02;;;6.60;99.90;;;;;;4985394;28;20164;-72
2023/02/09 11:28:52;;;;;;;15.65;10.30;;;6.50;99.90;;;;;;4968617;28;20034;-72
2023/02/09 11:32:02;;;;;;;16.67;10.38;;;6.40;99.90;;;;;;5025448;28;20511;-72
2023/02/09 11:34:47;;;;;;;18.40;11.48;;;6.20;99.90;;;;;;5007629;28;20042;-72
2023/02/09 11:37:34;;;;;;;15.32;9.30;;;6.10;99.90;;;;;;5044197;28;20049;-74
2023/02/09 11:40:09;;;;;;;18.48;11.23;;;6.10;99.90;;;;;;5037540;28;20040;-74
2023/02/09 11:42:42;;;;;;;14.20;8.25;;;6.00;99.90;;;;;;5048440;28;20040;-71
2023/02/09 11:45:30;;;;;;;13.75;8.98;;;5.90;99.90;;;;;;5049641;28;20372;-73
2023/02/09 11:48:04;;;;;;;14.23;8.82;;;5.80;99.90;;;;;;5045943;28;20487;-73
2023/02/09 11:50:53;;;;;;;15.50;9.10;;;5.80;99.90;;;;;;5041821;28;20059;-73
2023/02/09 11:53:43;;;;;;;13.20;8.10;;;5.70;99.90;;;;;;5033002;28;20045;-76
2023/02/09 11:56:12;;;;;;;14.02;8.80;;;5.70;99.90;;;;;;5046683;28;20040;-73
2023/02/09 11:58:52;;;;;;;19.85;9.38;;;5.70;99.90;;;;;;5043982;28;20044;-74
2023/02/09 12:01:36;;;;;;;11.02;7.75;;;5.70;99.90;;;;;;5039039;28;20036;-72
2023/02/09 12:04:31;;;;;;;16.05;9.23;;;5.80;99.90;;;;;;5032604;28;20067;-71
2023/02/09 12:07:04;;;;;;;14.75;8.20;;;5.90;99.90;;;;;;5031732;28;20037;-72
2023/02/09 12:09:49;;;;;;;;;;;5.90;99.90;;;;;;5045256;28;20044;-72
2023/02/09 12:12:33;;;;;;;15.20;6.75;;;6.00;99.90;;;;;;5045423;28;19912;-71
2023/02/09 12:15:21;;;;;;;13.93;8.23;;;6.00;99.90;;;;;;5045600;28;20051;-73
2023/02/09 12:17:55;;;;;;;18.52;10.68;;;6.00;99.90;;;;;;5046537;28;20072;-72
2023/02/09 12:20:28;;;;;;;14.18;9.27;;;6.00;99.90;;;;;;5006755;28;20037;-72
2023/02/09 12:23:24;;;;;;;15.02;8.18;;;6.10;99.90;;;;;;5046289;28;20048;-72
2023/02/09 12:25:58;;;;;;;14.85;9.25;;;6.10;99.90;;;;;;5050118;28;21196;-73
2023/02/09 12:28:31;;;;;;;12.80;8.07;;;6.20;99.90;;;;;;5045796;28;20028;-73
2023/02/09 12:30:57;;;;;;;11.43;7.75;;;6.30;99.90;;;;;;5022395;28;20033;-74
2023/02/09 12:33:23;;;;;;;12.18;8.15;;;6.40;99.90;;;;;;5056228;28;20036;-71
2023/02/09 12:36:04;;;;;;;14.63;9.25;;;6.50;99.90;;;;;;5035697;28;20568;-72
2023/02/09 12:39:01;;;;;;;11.30;7.70;;;6.50;99.90;;;;;;5056847;28;20036;-73
2023/02/09 12:41:30;;;;;;;13.60;8.75;;;6.60;99.90;;;;;;5056034;28;20032;-72
2023/02/09 12:44:09;;;;;;;14.27;9.23;;;6.60;99.90;;;;;;5046148;28;20063;-75
2023/02/09 12:46:50;;;;;;;15.10;9.93;;;6.60;99.90;;;;;;5038559;28;20055;-73
2023/02/09 12:49:26;;;;;;;12.02;9.27;;;6.50;99.90;;;;;;5038331;28;20055;-74
2023/02/09 12:51:52;;;;;;;13.95;10.00;;;6.40;99.90;;;;;;5056785;28;20031;-74
2023/02/09 12:54:33;;;;;;;15.60;9.85;;;6.40;99.90;;;;;;5059115;28;20037;-75
2023/02/09 12:57:15;;;;;;;14.65;9.35;;;6.40;99.90;;;;;;5042489;28;20484;-72
2023/02/09 13:00:04;;;;;;;18.23;10.43;;;6.30;99.90;;;;;;5055038;28;21842;-74
2023/02/09 13:02:50;;;;;;;14.13;9.73;;;6.40;99.90;;;;;;5039225;28;20048;-73
2023/02/09 13:05:37;;;;;;;13.63;9.57;;;6.30;99.90;;;;;;5037706;28;20039;-76
2023/02/09 13:08:10;;;;;;;15.70;11.10;;;6.40;99.90;;;;;;5009421;28;20037;-75
2023/02/09 13:11:04;;;;;;;18.98;11.57;;;6.40;99.90;;;;;;5053869;28;20458;-72
2023/02/09 13:13:31;;;;;;;15.25;10.82;;;6.40;99.90;;;;;;5045675;28;20036;-72